Argent Gerbera — V7UC4 — position and weather

sailwx.info

Track history (hours):
 
Tides and Currents Weather Stations Pressure Air Temp Water Temp Dewpoint Dewpoint Depression Visibility Wind Speed Wind Dir Waves Ship Positions

Argent Gerbera

Last reported at 2014-Jul-01 22:09 UTC. Time now 2014-Jul-23 13:57 UTC.
Position N 01°14' E 103°59'.
Warning: this ship's position is 21 days out of date.

Length 175 m; draft 6.7 m.

Type: Ship (hazmat cat B). MMSI: 538003929.

Date/timePositionNaut miles runAvg speedWind from/ knotsBaromVisibWave heightAir tempDewpointWater temp
2014-Jul-01 22:09N 01°14' E 103°59'914.9
2014-Jul-01 21:34N 01°11' E 103°51'1413.5
2014-Jul-01 20:33N 01°03' E 103°40'8 8.5
2014-Jul-01 19:33N 01°10' E 103°34'6 5.9
2014-Jul-01 18:34N 01°14' E 103°39'0 0.4
2014-Jul-01 17:29N 01°14' E 103°38'0 0.0
2014-Jul-01 16:26N 01°14' E 103°38'0 0.0
2014-Jul-01 15:29N 01°14' E 103°38'0 0.1
2014-Jul-01 14:32N 01°14' E 103°38'0 0.1
2014-Jul-01 13:32N 01°14' E 103°38'0 0.1
2014-Jul-01 12:29N 01°14' E 103°38'0 0.0
2014-Jul-01 11:32N 01°14' E 103°38'0 0.0
2014-Jul-01 10:23N 01°14' E 103°38'0 0.1
2014-Jul-01 09:26N 01°14' E 103°38'0 0.1
2014-Jul-01 08:32N 01°14' E 103°38'0 0.1
2014-Jul-01 07:26N 01°14' E 103°38'1 1.3
2014-Jul-01 06:33N 01°13' E 103°39'5 5.0
2014-Jul-01 05:33N 01°12' E 103°34'9 8.6
2014-Jul-01 04:33N 01°12' E 103°25'  
Track history (hours):
 
Tides and Currents Weather Stations Pressure Air Temp Water Temp Dewpoint Dewpoint Depression Visibility Wind Speed Wind Dir Waves Ship Positions

Argent Gerbera

Last reported at 2014-Jul-01 22:09 UTC. Time now 2014-Jul-23 13:57 UTC.
Position N 01°14' E 103°59'.
Warning: this ship's position is 21 days out of date.

Length 175 m; draft 6.7 m.

Type: Ship (hazmat cat B). MMSI: 538003929.

Date/timePositionNaut miles runAvg speedWind from/ knotsBaromVisibWave heightAir tempDewpointWater temp
2014-Jul-01 22:09N 01°14' E 103°59'914.9
2014-Jul-01 21:34N 01°11' E 103°51'1413.5
2014-Jul-01 20:33N 01°03' E 103°40'8 8.5
2014-Jul-01 19:33N 01°10' E 103°34'6 5.9
2014-Jul-01 18:34N 01°14' E 103°39'0 0.4
2014-Jul-01 17:29N 01°14' E 103°38'0 0.0
2014-Jul-01 16:26N 01°14' E 103°38'0 0.0
2014-Jul-01 15:29N 01°14' E 103°38'0 0.1
2014-Jul-01 14:32N 01°14' E 103°38'0 0.1
2014-Jul-01 13:32N 01°14' E 103°38'0 0.1
2014-Jul-01 12:29N 01°14' E 103°38'0 0.0
2014-Jul-01 11:32N 01°14' E 103°38'0 0.0
2014-Jul-01 10:23N 01°14' E 103°38'0 0.1
2014-Jul-01 09:26N 01°14' E 103°38'0 0.1
2014-Jul-01 08:32N 01°14' E 103°38'0 0.1
2014-Jul-01 07:26N 01°14' E 103°38'1 1.3
2014-Jul-01 06:33N 01°13' E 103°39'5 5.0
2014-Jul-01 05:33N 01°12' E 103°34'9 8.6
2014-Jul-01 04:33N 01°12' E 103°25'  

Dump ship's entire track history